Time;durP1;ratioP1;P1;durP2;ratioP2;P2;SDS_P1;SDS_P2;PMS_P1;PMS_P2;Temp;Humidity;BMP_temperature;BMP_pressure;BME280_temperature;BME280_humidity;BME280_pressure;Samples;Min_cycle;Max_cycle;Signal;HPM_P1;HPM_P2
2023/08/04 00:02:26;;;;;;;1.27;0.43;;;;;;;;;;20987351;28;20280;-74
2023/08/04 00:12:28;;;;;;;0.77;0.30;;;;;;;;;;20986017;28;20220;-75
2023/08/04 00:22:29;;;;;;;0.73;0.40;;;;;;;;;;20985557;28;20286;-75
2023/08/04 00:32:31;;;;;;;1.90;0.77;;;;;;;;;;20984001;28;20241;-74
2023/08/04 00:42:33;;;;;;;0.63;0.30;;;;;;;;;;20965557;28;20227;-75
2023/08/04 00:52:35;;;;;;;0.37;0.20;;;;;;;;;;20977803;28;20658;-74
2023/08/04 01:02:37;;;;;;;0.30;0.30;;;;;;;;;;20964500;28;20227;-74
2023/08/04 01:13:04;;;;;;;1.23;0.43;;;18.80;99.90;;;;;;20964819;28;20277;-75
2023/08/04 01:23:06;;;;;;;0.90;0.50;;;;;;;;;;20973460;28;20234;-75
2023/08/04 01:33:08;;;;;;;0.60;0.40;;;19.00;99.90;;;;;;20980747;28;20770;-74
2023/08/04 01:43:09;;;;;;;0.43;0.30;;;;;;;;;;20981047;28;20212;-74
2023/08/04 01:53:11;;;;;;;0.87;0.47;;;;;;;;;;20988454;28;20552;-75
2023/08/04 02:03:14;;;;;;;1.67;0.60;;;;;;;;;;20988733;28;20281;-75
2023/08/04 02:13:16;;;;;;;1.80;0.40;;;;;;;;;;20960868;28;20233;-75
2023/08/04 02:23:17;;;;;;;0.50;0.40;;;;;;;;;;20995113;28;20219;-75
2023/08/04 02:33:19;;;;;;;1.17;0.40;;;;;;;;;;21085422;22;20546;-71
2023/08/04 02:43:21;;;;;;;1.37;0.53;;;;;;;;;;21063519;28;20287;-71
2023/08/04 02:53:23;;;;;;;0.57;0.40;;;;;;;;;;21040822;28;20224;-71
2023/08/04 03:03:25;;;;;;;3.07;0.70;;;;;;;;;;21026639;28;20254;-71
2023/08/04 03:13:27;;;;;;;0.73;0.40;;;;;;;;;;21026238;28;20573;-71
2023/08/04 03:23:29;;;;;;;1.83;0.60;;;;;;;;;;21025604;28;20221;-70
2023/08/04 03:33:31;;;;;;;1.70;0.50;;;;;;;;;;21033900;28;20283;-70
2023/08/04 03:43:33;;;;;;;2.53;0.50;;;;;;;;;;21041993;28;20262;-72
2023/08/04 03:53:35;;;;;;;0.70;0.50;;;;;;;;;;21036850;28;20278;-71
2023/08/04 04:03:37;;;;;;;0.70;0.47;;;;;;;;;;21055557;28;20241;-70
2023/08/04 04:13:40;;;;;;;0.60;0.50;;;;;;;;;;21031510;28;20258;-71
2023/08/04 04:23:42;;;;;;;0.90;0.53;;;;;;;;;;21028081;28;20228;-70
2023/08/04 04:33:43;;;;;;;0.97;0.43;;;;;;;;;;21031261;28;20232;-70
2023/08/04 04:43:46;;;;;;;1.13;0.50;;;;;;;;;;21035792;28;20303;-70
2023/08/04 04:53:47;;;;;;;3.23;0.30;;;;;;;;;;21044196;28;20229;-70
2023/08/04 05:03:49;;;;;;;0.50;0.30;;;;;;;;;;21046132;28;20208;-71
2023/08/04 05:13:51;;;;;;;0.50;0.30;;;;;;;;;;21033471;28;20241;-70
2023/08/04 05:23:54;;;;;;;0.43;0.23;;;;;;;;;;21008954;28;20259;-70
2023/08/04 05:33:57;;;;;;;0.50;0.30;;;;;;;;;;21035489;28;20228;-71
2023/08/04 05:43:59;;;;;;;0.50;0.37;;;;;;;;;;21030343;28;20221;-71
2023/08/04 05:54:00;;;;;;;0.40;0.23;;;;;;;;;;21016223;28;20221;-70
2023/08/04 06:04:02;;;;;;;0.67;0.33;;;;;;;;;;21015284;28;20234;-71
2023/08/04 06:14:08;;;;;;;1.03;0.60;;;;;;;;;;21029706;28;20750;-70
2023/08/04 06:24:25;;;;;;;1.03;0.40;;;;;;;;;;21040875;28;20580;-70
2023/08/04 06:34:27;;;;;;;0.60;0.30;;;;;;;;;;21115823;28;20578;-70
2023/08/04 06:44:29;;;;;;;0.40;0.40;;;;;;;;;;21040327;28;20209;-70
2023/08/04 06:54:31;;;;;;;1.30;0.67;;;;;;;;;;21070895;28;20586;-70
2023/08/04 07:04:33;;;;;;;1.13;0.70;;;;;;;;;;21050581;28;20286;-70
2023/08/04 07:14:35;;;;;;;0.87;0.40;;;;;;;;;;21042678;28;20232;-70
2023/08/04 07:24:37;;;;;;;0.63;0.50;;;;;;;;;;21025979;28;20212;-70
2023/08/04 07:34:40;;;;;;;1.10;0.57;;;;;;;;;;21026634;28;20223;-71
2023/08/04 07:44:42;;;;;;;1.20;0.80;;;;;;;;;;21058258;28;20593;-71
2023/08/04 07:54:44;;;;;;;1.57;0.90;;;;;;;;;;21052697;28;20282;-71
2023/08/04 08:04:45;;;;;;;2.10;1.13;;;;;;;;;;21047692;28;20212;-70
2023/08/04 08:14:47;;;;;;;1.20;0.80;;;;;;;;;;21055634;28;20293;-71
2023/08/04 08:24:56;;;;;;;1.43;0.97;;;18.90;99.90;;;;;;21044941;28;20282;-71
2023/08/04 08:34:58;;;;;;;1.07;0.73;;;;;;;;;;21034292;28;20275;-72
2023/08/04 08:45:00;;;;;;;1.30;0.80;;;;;;;;;;21039656;28;20281;-71
2023/08/04 08:55:03;;;;;;;1.40;1.00;;;;;;;;;;21011579;28;20694;-71
2023/08/04 09:05:05;;;;;;;1.33;1.00;;;;;;;;;;21050710;28;20216;-71
2023/08/04 09:15:07;;;;;;;1.33;0.93;;;;;;;;;;21056456;28;20212;-73
2023/08/04 09:25:10;;;;;;;1.07;0.77;;;;;;;;;;21061386;28;20277;-70
2023/08/04 09:35:12;;;;;;;1.60;0.63;;;18.50;99.90;;;;;;21036972;28;20208;-70
2023/08/04 09:45:18;;;;;;;1.07;0.87;;;;;;;;;;21066683;28;20279;-71
2023/08/04 09:55:20;;;;;;;1.40;0.97;;;;;;;;;;21051566;28;20274;-70
2023/08/04 10:05:23;;;;;;;1.73;0.90;;;18.80;99.90;;;;;;21055520;28;20233;-70
2023/08/04 10:15:25;;;;;;;1.20;0.80;;;;;;;;;;21059595;28;20211;-70
2023/08/04 10:25:27;;;;;;;1.63;0.97;;;;;;;;;;21084405;28;20296;-69
2023/08/04 10:35:29;;;;;;;2.23;1.30;;;;;;;;;;21044675;28;20212;-70
2023/08/04 10:45:54;;;;;;;1.97;1.30;;;;;;;;;;21045336;28;20206;-70
2023/08/04 10:55:57;;;;;;;2.23;1.50;;;19.90;99.90;;;;;;21039288;28;20696;-71
2023/08/04 11:06:00;;;;;;;4.03;1.93;;;;;;;;;;21101357;28;20630;-70
2023/08/04 11:16:02;;;;;;;2.30;1.53;;;;;;;;;;21025472;28;20725;-72
2023/08/04 11:26:04;;;;;;;1.97;1.23;;;;;;;;;;21022006;28;20441;-71
2023/08/04 11:36:06;;;;;;;2.20;1.30;;;;;;;;;;21050292;28;20584;-73
2023/08/04 11:46:08;;;;;;;2.87;1.10;;;;;;;;;;21037319;28;20234;-71
2023/08/04 11:56:10;;;;;;;1.63;1.17;;;;;;;;;;21021235;28;20232;-70
2023/08/04 12:06:16;;;;;;;1.93;1.60;;;;;;;;;;21076052;28;20213;-71
2023/08/04 12:16:19;;;;;;;2.20;1.50;;;21.40;99.90;;;;;;21098483;28;20289;-73
2023/08/04 12:26:21;;;;;;;2.73;1.90;;;;;;;;;;21038924;28;20210;-71
2023/08/04 12:36:24;;;;;;;3.63;1.40;;;;;;;;;;21051023;28;20287;-72
2023/08/04 12:46:29;;;;;;;2.10;1.37;;;;;;;;;;21009274;28;20219;-73
2023/08/04 12:56:31;;;;;;;2.00;1.50;;;;;;;;;;21049375;28;20219;-73
2023/08/04 13:06:33;;;;;;;2.65;1.65;;;;;;;;;;21001558;28;20222;-74
2023/08/04 13:16:35;;;;;;;2.47;1.47;;;;;;;;;;21015940;28;20307;-73
2023/08/04 13:26:39;;;;;;;1.92;1.25;;;22.80;99.90;;;;;;21041066;28;20552;-74
2023/08/04 13:36:41;;;;;;;1.52;1.10;;;;;;;;;;21075603;23;20229;-73
2023/08/04 13:46:43;;;;;;;1.77;1.10;;;;;;;;;;21117074;28;20224;-75
2023/08/04 13:56:44;;;;;;;1.63;1.30;;;;;;;;;;21140776;27;20714;-76
2023/08/04 14:06:47;;;;;;;2.55;1.30;;;;;;;;;;21140955;28;20272;-73
2023/08/04 14:16:49;;;;;;;3.10;1.30;;;;;;;;;;21142044;28;20248;-76
2023/08/04 14:26:51;;;;;;;1.63;1.03;;;;;;;;;;21140179;28;20219;-75
2023/08/04 14:36:53;;;;;;;2.08;1.20;;;;;;;;;;21142389;28;20276;-75
2023/08/04 14:46:55;;;;;;;2.57;1.40;;;;;;;;;;21139481;28;20264;-74
2023/08/04 14:56:56;;;;;;;2.08;1.25;;;;;;;;;;21117077;27;20267;-75
2023/08/04 15:06:58;;;;;;;1.58;1.20;;;;;;;;;;21091906;28;20208;-75
2023/08/04 15:17:00;;;;;;;1.50;0.95;;;;;;;;;;21071402;28;20598;-76
2023/08/04 15:27:02;;;;;;;1.70;1.02;;;;;;;;;;21053697;28;20215;-73
2023/08/04 15:37:04;;;;;;;2.90;1.13;;;;;;;;;;21071209;28;20231;-77
2023/08/04 15:47:05;;;;;;;1.45;0.80;;;;;;;;;;21070469;28;20204;-75
2023/08/04 15:57:07;;;;;;;1.45;0.80;;;;;;;;;;21133669;28;20223;-75
2023/08/04 16:07:09;;;;;;;3.10;0.90;;;;;;;;;;21151205;28;20221;-76
2023/08/04 16:17:11;;;;;;;1.08;0.63;;;;;;;;;;21151705;28;20274;-73
2023/08/04 16:27:13;;;;;;;1.80;1.00;;;22.20;99.90;;;;;;21152905;28;20757;-76
2023/08/04 16:37:15;;;;;;;3.65;0.93;;;;;;;;;;21151219;28;20283;-76
2023/08/04 16:47:16;;;;;;;1.80;1.00;;;;;;;;;;21149309;28;20229;-76
2023/08/04 16:57:18;;;;;;;2.28;0.77;;;;;;;;;;21143531;27;20225;-76
2023/08/04 17:07:20;;;;;;;2.58;1.00;;;;;;;;;;21149017;28;20280;-75
2023/08/04 17:17:21;;;;;;;1.70;0.90;;;;;;;;;;21146719;28;20230;-75
2023/08/04 17:27:23;;;;;;;3.08;1.02;;;;;;;;;;21147023;28;20201;-75
2023/08/04 17:37:25;;;;;;;2.83;1.00;;;;;;;;;;21147394;28;20257;-75
2023/08/04 17:47:27;;;;;;;1.10;0.80;;;;;;;;;;21146631;28;20206;-75
2023/08/04 17:57:29;;;;;;;1.75;0.80;;;;;;;;;;21139676;28;20295;-74
2023/08/04 18:07:30;;;;;;;1.63;1.10;;;;;;;;;;21145244;28;20186;-74
2023/08/04 18:17:32;;;;;;;1.65;0.85;;;;;;;;;;21142573;28;20271;-75
2023/08/04 18:27:34;;;;;;;1.52;0.90;;;;;;;;;;21146066;28;20209;-74
2023/08/04 18:37:36;;;;;;;1.15;0.90;;;;;;;;;;21163675;28;20610;-72
2023/08/04 18:47:38;;;;;;;1.95;0.77;;;;;;;;;;21159300;28;20194;-76
2023/08/04 18:57:40;;;;;;;1.33;1.17;;;;;;;;;;21170515;27;20243;-75
2023/08/04 19:07:41;;;;;;;1.23;0.88;;;;;;;;;;21158340;28;20205;-75
2023/08/04 19:17:43;;;;;;;0.68;0.68;;;;;;;;;;21157232;28;20242;-77
2023/08/04 19:27:45;;;;;;;2.30;1.10;;;;;;;;;;21133775;28;20235;-75
2023/08/04 19:37:47;;;;;;;1.37;1.10;;;;;;;;;;21096181;22;20226;-74
2023/08/04 19:47:49;;;;;;;1.40;0.80;;;;;;;;;;21013909;28;20308;-74
2023/08/04 19:57:50;;;;;;;1.60;0.80;;;;;;;;;;21003522;28;20629;-73
2023/08/04 20:07:52;;;;;;;1.47;0.83;;;;;;;;;;21016492;28;20221;-74
2023/08/04 20:17:54;;;;;;;2.73;1.00;;;;;;;;;;21031644;28;20708;-73
2023/08/04 20:27:56;;;;;;;2.10;1.23;;;;;;;;;;21016352;28;20218;-73
2023/08/04 20:37:58;;;;;;;1.60;1.10;;;20.90;99.90;;;;;;21017384;28;20292;-73
2023/08/04 20:48:00;;;;;;;1.40;1.10;;;;;;;;;;21012623;28;20302;-73
2023/08/04 20:58:02;;;;;;;1.40;1.10;;;;;;;;;;21021643;28;20283;-73
2023/08/04 21:08:04;;;;;;;2.20;1.37;;;;;;;;;;21017676;28;20688;-73
2023/08/04 21:18:06;;;;;;;2.00;1.20;;;;;;;;;;20989879;28;20263;-73
2023/08/04 21:28:08;;;;;;;2.80;1.43;;;;;;;;;;21004811;28;20220;-73
2023/08/04 21:38:09;;;;;;;1.70;1.10;;;;;;;;;;21015288;28;20286;-73
2023/08/04 21:48:13;;;;;;;2.07;1.30;;;;;;;;;;21008212;28;20260;-73
2023/08/04 21:58:15;;;;;;;2.50;1.07;;;;;;;;;;21004074;28;20689;-74
2023/08/04 22:08:17;;;;;;;1.63;0.80;;;;;;;;;;21042713;28;20302;-74
2023/08/04 22:18:19;;;;;;;2.07;1.10;;;;;;;;;;21047020;28;20259;-74
2023/08/04 22:28:22;;;;;;;1.07;0.70;;;;;;;;;;21040555;28;20343;-73
2023/08/04 22:38:24;;;;;;;1.30;0.70;;;;;;;;;;20986245;28;20663;-73
2023/08/04 22:48:27;;;;;;;1.20;0.80;;;;;;;;;;21026535;28;20251;-73
2023/08/04 22:58:28;;;;;;;1.33;1.00;;;;;;;;;;21028164;28;20279;-73
2023/08/04 23:08:30;;;;;;;1.07;0.70;;;;;;;;;;21018117;28;20261;-73
2023/08/04 23:18:33;;;;;;;0.87;0.77;;;;;;;;;;21041793;28;20235;-74
2023/08/04 23:28:35;;;;;;;0.80;0.67;;;;;;;;;;21042303;28;20219;-73
2023/08/04 23:38:36;;;;;;;3.70;0.60;;;;;;;;;;21003106;28;20275;-73
2023/08/04 23:48:38;;;;;;;1.07;0.70;;;;;;;;;;20993619;28;20213;-73
2023/08/04 23:58:40;;;;;;;1.70;0.73;;;;;;;;;;21002574;28;20651;-73
